Time;durP1;ratioP1;P1;durP2;ratioP2;P2;SDS_P1;SDS_P2;PMS_P1;PMS_P2;Temp;Humidity;BMP_temperature;BMP_pressure;BME280_temperature;BME280_humidity;BME280_pressure;Samples;Min_cycle;Max_cycle;Signal;HPM_P1;HPM_P2
2021/08/16 00:01:22;;;;;;;15.20;5.47;;;29.50;48.50;;;;;;5013764;28;20101;-73
2021/08/16 00:03:48;;;;;;;19.15;5.18;;;29.50;49.90;;;;;;5013884;28;20071;-73
2021/08/16 00:06:14;;;;;;;15.27;4.95;;;29.50;50.50;;;;;;5014206;28;20026;-73
2021/08/16 00:08:39;;;;;;;15.55;4.80;;;29.50;49.70;;;;;;5012635;28;20112;-73
2021/08/16 00:11:05;;;;;;;12.18;4.28;;;29.50;50.40;;;;;;5012466;28;20029;-72
2021/08/16 00:13:31;;;;;;;14.00;4.88;;;29.50;48.30;;;;;;4995972;28;20033;-72
2021/08/16 00:15:58;;;;;;;12.93;4.60;;;29.50;48.90;;;;;;5013417;28;20057;-73
2021/08/16 00:18:23;;;;;;;12.73;4.28;;;29.50;49.80;;;;;;4995835;28;20040;-72
2021/08/16 00:20:49;;;;;;;16.50;4.97;;;29.40;48.20;;;;;;4995776;28;20117;-73
2021/08/16 00:23:15;;;;;;;13.52;4.65;;;29.40;49.10;;;;;;5013582;28;20064;-72
2021/08/16 00:25:41;;;;;;;18.05;5.47;;;29.40;49.10;;;;;;5013703;28;20557;-72
2021/08/16 00:28:07;;;;;;;13.95;5.40;;;29.40;50.30;;;;;;5013461;28;20018;-72
2021/08/16 00:30:33;;;;;;;14.60;4.72;;;29.40;50.60;;;;;;5013457;28;20423;-73
2021/08/16 00:32:58;;;;;;;15.00;5.20;;;29.40;51.50;;;;;;5013748;28;20030;-75
2021/08/16 00:35:24;;;;;;;12.23;4.40;;;29.40;51.80;;;;;;5013748;28;20022;-73
2021/08/16 00:37:50;;;;;;;14.13;5.40;;;29.40;50.40;;;;;;5012391;28;20026;-72
2021/08/16 00:40:16;;;;;;;13.52;5.45;;;29.40;50.10;;;;;;5013592;28;20030;-72
2021/08/16 00:42:42;;;;;;;16.42;5.70;;;29.40;50.20;;;;;;5013338;28;20570;-72
2021/08/16 00:45:08;;;;;;;15.38;5.95;;;29.40;49.70;;;;;;5013258;28;20471;-73
2021/08/16 00:47:36;;;;;;;12.32;4.82;;;29.40;49.80;;;;;;5012007;28;20178;-73
2021/08/16 00:50:02;;;;;;;12.63;5.03;;;29.30;48.30;;;;;;4995561;28;20124;-73
2021/08/16 00:52:28;;;;;;;14.85;5.40;;;29.30;48.10;;;;;;5013314;28;20534;-73
2021/08/16 00:54:56;;;;;;;11.45;5.50;;;29.20;48.70;;;;;;5013189;28;20026;-72
2021/08/16 00:57:23;;;;;;;19.05;6.13;;;29.20;48.70;;;;;;5013090;28;20030;-73
2021/08/16 00:59:49;;;;;;;12.15;5.60;;;29.10;48.80;;;;;;5013553;28;20456;-73
2021/08/16 01:02:15;;;;;;;19.40;5.70;;;29.10;49.10;;;;;;5016403;28;20382;-73
2021/08/16 01:04:41;;;;;;;20.10;6.15;;;29.10;49.10;;;;;;5017462;28;20021;-73
2021/08/16 01:07:06;;;;;;;19.55;6.57;;;29.00;48.90;;;;;;5017416;28;20018;-72
2021/08/16 01:09:33;;;;;;;12.05;5.53;;;29.00;48.70;;;;;;5017124;28;20028;-74
2021/08/16 01:11:59;;;;;;;18.75;6.22;;;29.00;47.90;;;;;;5017086;28;20033;-73
2021/08/16 01:14:25;;;;;;;12.48;6.13;;;29.10;48.30;;;;;;5017208;28;20058;-73
2021/08/16 01:16:50;;;;;;;11.23;5.97;;;29.10;48.00;;;;;;5017060;28;20038;-73
2021/08/16 01:19:20;;;;;;;18.80;5.85;;;29.10;48.10;;;;;;5016990;28;20121;-73
2021/08/16 01:21:46;;;;;;;20.02;6.78;;;29.10;47.60;;;;;;5016735;28;20356;-74
2021/08/16 01:24:12;;;;;;;12.13;5.72;;;29.10;48.10;;;;;;5016697;28;20501;-74
2021/08/16 01:26:38;;;;;;;14.57;6.07;;;29.10;47.90;;;;;;5017122;28;20128;-72
2021/08/16 01:29:22;;;;;;;18.75;5.82;;;29.10;47.70;;;;;;5016798;28;20084;-74
2021/08/16 01:31:47;;;;;;;19.48;6.55;;;29.10;47.70;;;;;;5016773;28;20105;-73
2021/08/16 01:34:13;;;;;;;14.68;6.07;;;29.10;47.50;;;;;;5016885;28;20064;-73
2021/08/16 01:36:44;;;;;;;16.95;6.10;;;29.10;47.70;;;;;;5016660;28;20037;-73
2021/08/16 01:39:10;;;;;;;15.55;6.55;;;29.00;47.50;;;;;;5016426;28;20038;-74
2021/08/16 01:41:36;;;;;;;11.40;5.72;;;29.00;47.80;;;;;;5016523;28;20037;-74
2021/08/16 01:44:02;;;;;;;12.88;5.85;;;29.00;47.70;;;;;;5016576;28;20034;-73
2021/08/16 01:46:27;;;;;;;21.17;6.30;;;29.00;47.30;;;;;;5016532;28;20430;-73
2021/08/16 01:48:53;;;;;;;11.20;6.00;;;29.00;47.40;;;;;;5016452;28;20041;-73
2021/08/16 01:51:19;;;;;;;18.85;6.25;;;28.90;47.30;;;;;;5014855;28;20415;-72
2021/08/16 01:53:45;;;;;;;14.93;6.55;;;28.80;47.40;;;;;;5016348;28;20029;-74
2021/08/16 01:56:11;;;;;;;17.90;6.22;;;28.80;47.40;;;;;;5016348;28;20014;-73
2021/08/16 01:58:37;;;;;;;23.48;6.40;;;28.80;47.40;;;;;;5014808;28;20034;-74
2021/08/16 02:01:03;;;;;;;15.10;6.13;;;28.80;47.40;;;;;;5016225;28;20087;-73
2021/08/16 02:03:29;;;;;;;12.18;5.88;;;28.70;47.40;;;;;;5016310;28;20051;-73
2021/08/16 02:05:55;;;;;;;14.48;5.80;;;28.70;47.10;;;;;;5016117;28;20026;-73
2021/08/16 02:08:20;;;;;;;12.90;5.72;;;28.70;46.80;;;;;;5014673;28;20034;-73
2021/08/16 02:10:46;;;;;;;12.75;5.90;;;28.70;46.70;;;;;;5016284;28;20018;-73
2021/08/16 02:13:12;;;;;;;16.55;6.00;;;28.60;46.50;;;;;;5026550;28;20026;-73
2021/08/16 02:15:38;;;;;;;12.73;5.65;;;28.60;46.60;;;;;;5027298;28;20096;-73
2021/08/16 02:18:05;;;;;;;17.90;6.47;;;28.60;46.70;;;;;;5026445;28;20030;-73
2021/08/16 02:20:32;;;;;;;16.58;6.47;;;28.50;46.80;;;;;;5005267;28;20026;-74
2021/08/16 02:22:57;;;;;;;13.68;6.47;;;28.50;46.70;;;;;;5015783;28;20029;-73
2021/08/16 02:25:26;;;;;;;17.60;6.03;;;28.40;46.50;;;;;;5015761;28;20018;-73
2021/08/16 02:27:54;;;;;;;11.88;5.72;;;28.50;46.30;;;;;;5015782;28;20030;-73
2021/08/16 02:30:20;;;;;;;15.40;6.18;;;28.40;46.20;;;;;;5015698;28;20083;-73
2021/08/16 02:32:46;;;;;;;13.15;6.28;;;28.40;46.40;;;;;;5015599;28;20116;-73
2021/08/16 02:35:12;;;;;;;15.32;6.38;;;28.40;46.30;;;;;;5015609;28;20599;-73
2021/08/16 02:37:38;;;;;;;13.98;5.90;;;28.40;46.80;;;;;;5015864;28;20368;-73
2021/08/16 02:40:05;;;;;;;17.17;6.60;;;28.40;46.10;;;;;;5015278;28;20037;-73
2021/08/16 02:42:30;;;;;;;14.45;6.50;;;28.40;45.80;;;;;;5015291;28;20463;-74
2021/08/16 02:44:56;;;;;;;20.35;6.35;;;28.40;45.80;;;;;;5015236;28;20112;-73
2021/08/16 02:47:22;;;;;;;18.10;7.70;;;28.30;45.60;;;;;;5015289;28;20383;-73
2021/08/16 02:49:51;;;;;;;14.65;6.75;;;28.20;45.40;;;;;;5015073;28;20026;-73
2021/08/16 02:52:17;;;;;;;20.55;6.30;;;28.20;45.70;;;;;;5015220;28;20084;-74
2021/08/16 02:54:44;;;;;;;16.08;6.82;;;28.10;45.70;;;;;;5015150;28;20052;-73
2021/08/16 02:57:12;;;;;;;22.67;6.90;;;28.10;45.90;;;;;;5015232;28;20394;-73
2021/08/16 02:59:39;;;;;;;21.23;7.65;;;28.00;46.00;;;;;;5014985;28;20041;-74
2021/08/16 03:02:06;;;;;;;22.27;7.63;;;28.00;45.70;;;;;;5015009;28;20422;-71
2021/08/16 03:04:32;;;;;;;18.35;6.30;;;28.00;45.70;;;;;;5013696;28;20408;-73
2021/08/16 03:06:58;;;;;;;27.95;7.90;;;27.90;45.50;;;;;;5014935;28;20042;-73
2021/08/16 03:09:26;;;;;;;22.17;6.88;;;27.90;45.30;;;;;;5014764;28;20467;-73
2021/08/16 03:11:52;;;;;;;22.17;6.65;;;27.80;45.10;;;;;;5015042;28;20022;-73
2021/08/16 03:14:18;;;;;;;21.75;6.38;;;27.80;45.10;;;;;;5005809;28;20399;-73
2021/08/16 03:16:44;;;;;;;16.15;6.60;;;27.70;45.10;;;;;;5014753;28;20030;-73
2021/08/16 03:19:09;;;;;;;17.58;6.45;;;27.70;45.10;;;;;;5014659;28;20509;-75
2021/08/16 03:21:35;;;;;;;18.55;6.70;;;27.80;45.30;;;;;;5014405;28;20594;-74
2021/08/16 03:24:01;;;;;;;18.98;6.85;;;27.90;45.10;;;;;;5014076;28;20029;-73
2021/08/16 03:26:27;;;;;;;11.93;5.47;;;27.90;45.10;;;;;;5014588;28;20483;-73
2021/08/16 03:28:52;;;;;;;19.63;6.18;;;28.00;45.20;;;;;;5014272;28;20101;-73
2021/08/16 03:31:19;;;;;;;17.77;6.38;;;27.90;45.10;;;;;;5014672;28;20103;-74
2021/08/16 03:33:45;;;;;;;16.55;6.50;;;27.90;44.70;;;;;;5014463;28;20037;-73
2021/08/16 03:36:12;;;;;;;17.48;6.47;;;27.90;46.00;;;;;;5014101;28;20025;-73
2021/08/16 03:38:38;;;;;;;24.00;7.18;;;27.90;45.60;;;;;;5014377;28;20045;-73
2021/08/16 03:41:05;;;;;;;18.33;6.80;;;27.90;45.60;;;;;;5014140;28;20029;-73
2021/08/16 03:43:31;;;;;;;19.73;7.05;;;27.90;45.70;;;;;;5014353;28;20025;-73
2021/08/16 03:45:56;;;;;;;18.60;6.60;;;27.90;45.80;;;;;;4996384;28;20032;-73
2021/08/16 03:48:22;;;;;;;20.60;6.60;;;27.90;45.70;;;;;;5014045;28;20025;-73
2021/08/16 03:50:48;;;;;;;26.17;7.32;;;27.90;45.70;;;;;;5014255;28;20026;-74
2021/08/16 03:53:14;;;;;;;19.80;7.15;;;27.80;45.40;;;;;;5014203;28;20028;-73
2021/08/16 03:55:40;;;;;;;24.27;6.97;;;27.80;45.70;;;;;;5013775;28;20021;-74
2021/08/16 03:58:06;;;;;;;16.98;7.13;;;27.70;45.70;;;;;;4996329;28;20029;-72
2021/08/16 04:00:32;;;;;;;24.35;7.90;;;27.70;45.70;;;;;;5013816;28;20042;-73
2021/08/16 04:02:58;;;;;;;15.73;6.63;;;27.70;45.90;;;;;;5013648;28;20057;-73
2021/08/16 04:05:24;;;;;;;24.85;7.15;;;27.60;46.10;;;;;;5014108;28;20117;-73
2021/08/16 04:07:50;;;;;;;21.25;6.10;;;27.60;45.80;;;;;;5013768;28;20426;-72
2021/08/16 04:10:17;;;;;;;17.08;5.88;;;27.60;46.00;;;;;;5013528;28;20100;-72
2021/08/16 04:12:44;;;;;;;18.20;7.25;;;27.60;46.50;;;;;;5013518;28;20375;-73
2021/08/16 04:15:15;;;;;;;19.63;6.28;;;27.60;46.10;;;;;;5013358;28;20055;-72
2021/08/16 04:17:42;;;;;;;17.52;6.68;;;27.60;45.80;;;;;;5013957;28;20022;-73
2021/08/16 04:20:09;;;;;;;19.73;6.32;;;27.50;45.70;;;;;;5013667;28;20482;-73
2021/08/16 04:22:35;;;;;;;18.75;6.25;;;27.50;45.70;;;;;;5013561;28;20022;-73
2021/08/16 04:25:02;;;;;;;19.45;7.30;;;27.50;46.00;;;;;;5013461;28;20479;-72
2021/08/16 04:27:27;;;;;;;20.00;7.35;;;27.50;45.90;;;;;;5013509;28;20026;-72
2021/08/16 04:29:53;;;;;;;17.30;6.03;;;27.50;46.40;;;;;;5011970;28;20022;-73
2021/08/16 04:32:19;;;;;;;18.65;6.35;;;27.60;45.80;;;;;;5013295;28;20026;-74
2021/08/16 04:34:44;;;;;;;23.48;7.32;;;27.50;45.70;;;;;;5013495;28;20037;-73
2021/08/16 04:37:10;;;;;;;18.88;7.15;;;27.60;45.50;;;;;;5012868;28;20546;-73
2021/08/16 04:39:36;;;;;;;23.88;6.70;;;27.60;45.60;;;;;;5013199;28;20466;-73
2021/08/16 04:42:02;;;;;;;15.73;6.35;;;27.60;45.50;;;;;;5013198;28;20029;-74
2021/08/16 04:44:28;;;;;;;18.98;6.40;;;27.60;45.40;;;;;;5013665;28;20029;-74
2021/08/16 04:46:53;;;;;;;17.83;6.90;;;27.60;45.30;;;;;;5013505;28;20429;-73
2021/08/16 04:49:19;;;;;;;26.58;7.47;;;27.70;45.40;;;;;;5013452;28;20456;-72
2021/08/16 04:51:45;;;;;;;16.65;6.88;;;27.70;45.20;;;;;;5013192;28;20054;-73
2021/08/16 04:54:10;;;;;;;16.40;6.45;;;27.70;45.40;;;;;;5013301;28;20045;-73
2021/08/16 04:56:36;;;;;;;25.10;7.18;;;27.60;45.30;;;;;;5013171;28;20494;-73
2021/08/16 04:59:02;;;;;;;22.88;6.80;;;27.60;45.80;;;;;;5013182;28;20037;-73
2021/08/16 05:01:28;;;;;;;17.77;6.78;;;27.70;46.00;;;;;;5011880;28;20132;-74
2021/08/16 05:03:54;;;;;;;18.95;6.43;;;27.70;46.50;;;;;;5013250;28;20352;-74
2021/08/16 05:06:28;;;;;;;18.02;7.15;;;27.70;46.80;;;;;;5014227;28;20104;-74
2021/08/16 05:08:55;;;;;;;21.52;7.18;;;27.70;47.00;;;;;;5027000;28;20033;-72
2021/08/16 05:11:21;;;;;;;22.20;8.73;;;27.70;47.20;;;;;;5024044;28;20030;-74
2021/08/16 05:13:46;;;;;;;18.90;7.07;;;27.80;47.20;;;;;;5025019;28;20108;-72
2021/08/16 05:16:14;;;;;;;19.33;7.15;;;27.70;46.90;;;;;;5015999;28;20054;-72
2021/08/16 05:18:40;;;;;;;19.98;7.20;;;27.80;47.30;;;;;;5013821;28;20087;-73
2021/08/16 05:21:06;;;;;;;22.75;7.28;;;27.80;46.70;;;;;;5013157;28;20384;-74
2021/08/16 05:23:31;;;;;;;21.17;7.25;;;27.80;47.00;;;;;;5013229;28;20491;-77
2021/08/16 05:26:00;;;;;;;24.15;7.10;;;27.80;45.70;;;;;;5013029;28;20042;-73
2021/08/16 05:28:28;;;;;;;20.13;7.18;;;27.80;46.80;;;;;;5013266;28;20542;-74
2021/08/16 05:30:56;;;;;;;23.52;7.38;;;27.90;46.70;;;;;;5012943;28;20093;-72
2021/08/16 05:33:21;;;;;;;21.02;7.00;;;27.90;47.10;;;;;;5012839;28;20030;-72
2021/08/16 05:35:47;;;;;;;22.67;6.90;;;28.00;46.40;;;;;;5012893;28;20478;-72
2021/08/16 05:38:13;;;;;;;21.80;7.03;;;28.10;45.60;;;;;;5012903;28;20041;-69
2021/08/16 05:40:39;;;;;;;23.20;8.07;;;28.10;45.90;;;;;;5012821;28;20030;-73
2021/08/16 05:43:06;;;;;;;28.45;7.10;;;28.10;45.00;;;;;;5012790;28;20022;-72
2021/08/16 05:45:32;;;;;;;26.60;6.95;;;28.10;44.60;;;;;;5007617;28;20025;-71
2021/08/16 05:47:57;;;;;;;20.38;6.45;;;28.10;46.20;;;;;;5012083;28;20033;-75
2021/08/16 05:50:24;;;;;;;31.63;7.03;;;28.10;46.30;;;;;;5015617;28;20030;-73
2021/08/16 05:52:51;;;;;;;26.55;7.35;;;28.10;46.90;;;;;;4999503;28;20018;-75
2021/08/16 05:55:17;;;;;;;23.77;7.15;;;28.10;46.90;;;;;;4996750;28;20031;-74
2021/08/16 05:57:42;;;;;;;28.27;7.60;;;28.10;46.80;;;;;;4998998;28;20018;-74
2021/08/16 06:00:09;;;;;;;28.30;7.70;;;28.10;46.10;;;;;;5015633;28;20044;-74
2021/08/16 06:02:35;;;;;;;25.67;7.40;;;28.20;46.00;;;;;;5015741;28;20022;-74
2021/08/16 06:05:02;;;;;;;24.50;6.88;;;28.30;45.50;;;;;;4999208;28;20472;-74
2021/08/16 06:07:28;;;;;;;27.70;7.18;;;28.40;47.30;;;;;;5006738;28;20032;-72
2021/08/16 06:09:54;;;;;;;25.40;7.85;;;28.60;47.30;;;;;;5015608;28;20077;-71
2021/08/16 06:12:20;;;;;;;25.83;6.57;;;28.80;47.20;;;;;;5013347;28;20022;-77
2021/08/16 06:14:46;;;;;;;22.38;7.38;;;29.00;47.20;;;;;;5015985;28;20057;-82
2021/08/16 06:17:14;;;;;;;22.90;7.47;;;29.00;47.10;;;;;;4999264;28;20079;-79
2021/08/16 06:19:39;;;;;;;30.13;9.25;;;29.00;45.90;;;;;;5016202;28;20034;-78
2021/08/16 06:22:05;;;;;;;31.90;8.48;;;29.00;47.30;;;;;;5006654;28;20016;-79
2021/08/16 06:24:34;;;;;;;24.05;8.02;;;29.00;47.30;;;;;;5021302;28;20030;-82
2021/08/16 06:27:00;;;;;;;20.35;7.38;;;28.90;47.70;;;;;;5004591;28;20068;-80
2021/08/16 06:29:25;;;;;;;18.88;6.85;;;28.90;47.40;;;;;;5015567;28;20037;-80
2021/08/16 06:31:51;;;;;;;27.65;7.03;;;28.90;47.20;;;;;;5012165;28;20026;-80
2021/08/16 06:34:18;;;;;;;33.78;7.82;;;29.00;47.50;;;;;;4999803;28;20021;-80
2021/08/16 06:36:50;;;;;;;25.08;6.68;;;29.00;48.00;;;;;;5015960;28;20044;-74
2021/08/16 06:39:21;;;;;;;33.05;8.20;;;29.10;48.40;;;;;;5015876;28;20038;-78
2021/08/16 06:41:49;;;;;;;31.10;7.07;;;29.10;47.70;;;;;;5015466;28;20026;-75
2021/08/16 06:44:17;;;;;;;34.42;7.25;;;29.10;49.40;;;;;;5015592;28;20029;-77
2021/08/16 06:46:44;;;;;;;32.78;6.47;;;29.10;50.00;;;;;;5015495;28;20026;-74
2021/08/16 06:49:14;;;;;;;27.88;6.45;;;29.00;50.60;;;;;;5015303;28;20037;-78
2021/08/16 06:51:40;;;;;;;28.88;5.82;;;29.00;51.00;;;;;;5015464;28;20034;-75
2021/08/16 06:54:06;;;;;;;33.60;6.32;;;28.90;51.70;;;;;;5015328;28;20076;-75
2021/08/16 06:56:31;;;;;;;41.22;7.47;;;29.00;52.10;;;;;;5015309;28;20165;-80
2021/08/16 06:58:57;;;;;;;30.50;7.75;;;28.90;52.50;;;;;;5002367;28;20049;-75
2021/08/16 07:01:27;;;;;;;28.55;6.85;;;28.90;52.60;;;;;;4995914;28;20037;-77
2021/08/16 07:03:55;;;;;;;60.38;13.20;;;29.00;52.00;;;;;;5013348;28;20045;-71
2021/08/16 07:06:20;;;;;;;36.45;9.65;;;29.10;52.80;;;;;;4989770;28;20396;-71
2021/08/16 07:08:47;;;;;;;29.02;6.90;;;29.20;52.30;;;;;;5006827;28;20033;-71
2021/08/16 07:11:13;;;;;;;38.05;7.30;;;29.40;52.60;;;;;;5004086;28;20036;-71
2021/08/16 07:13:40;;;;;;;24.05;7.13;;;29.60;52.40;;;;;;5005389;28;20018;-73
2021/08/16 07:16:06;;;;;;;44.03;7.47;;;29.70;51.50;;;;;;5003421;28;20050;-72
2021/08/16 07:18:35;;;;;;;27.27;5.50;;;29.80;52.40;;;;;;5002927;28;20034;-72
2021/08/16 07:21:02;;;;;;;26.98;6.40;;;30.00;51.80;;;;;;5003494;28;20082;-71
2021/08/16 07:23:28;;;;;;;28.25;6.60;;;30.10;52.70;;;;;;5003805;28;20096;-72
2021/08/16 07:25:59;;;;;;;28.20;6.32;;;30.10;52.20;;;;;;5005602;28;20080;-73
2021/08/16 07:28:29;;;;;;;20.92;6.43;;;30.20;51.80;;;;;;5003838;28;20033;-71
2021/08/16 07:30:55;;;;;;;24.20;5.30;;;30.40;51.40;;;;;;5005125;28;20026;-73
2021/08/16 07:33:21;;;;;;;27.60;5.03;;;30.40;51.60;;;;;;5003112;28;20097;-71
2021/08/16 07:35:47;;;;;;;18.83;4.82;;;30.60;51.40;;;;;;5005404;28;20115;-73
2021/08/16 07:38:13;;;;;;;26.58;6.38;;;30.90;50.90;;;;;;5004586;28;20014;-71
2021/08/16 07:40:39;;;;;;;18.83;5.50;;;31.10;50.00;;;;;;5002702;28;20038;-72
2021/08/16 07:43:05;;;;;;;21.92;4.80;;;31.40;49.80;;;;;;4980675;28;20027;-71
2021/08/16 07:45:31;;;;;;;19.50;4.75;;;31.60;49.70;;;;;;4994286;28;20023;-71
2021/08/16 07:47:57;;;;;;;16.83;5.25;;;31.80;48.40;;;;;;4994520;28;20105;-72
2021/08/16 07:50:23;;;;;;;19.10;4.57;;;31.90;49.30;;;;;;4994161;28;20463;-75
2021/08/16 07:52:49;;;;;;;21.98;5.10;;;32.00;49.90;;;;;;4994546;28;20080;-76
2021/08/16 07:55:15;;;;;;;29.23;5.40;;;32.20;48.70;;;;;;4977071;28;20062;-77
2021/08/16 07:57:41;;;;;;;16.30;5.25;;;32.10;49.40;;;;;;5012336;28;20418;-74
2021/08/16 08:00:09;;;;;;;17.25;4.97;;;32.10;49.20;;;;;;5014125;28;20040;-74
2021/08/16 08:02:49;;;;;;;17.23;4.15;;;32.00;49.30;;;;;;5015473;28;20050;-75
2021/08/16 08:05:20;;;;;;;12.18;4.10;;;31.90;48.90;;;;;;5031511;28;20058;-73
2021/08/16 08:07:47;;;;;;;23.10;5.15;;;31.80;49.30;;;;;;5029311;28;20109;-73
2021/08/16 08:10:15;;;;;;;15.32;6.18;;;31.70;51.00;;;;;;5029251;28;20032;-71
2021/08/16 08:12:42;;;;;;;13.98;5.07;;;31.60;51.00;;;;;;5019936;28;20033;-72
2021/08/16 08:15:09;;;;;;;10.15;4.80;;;31.60;51.10;;;;;;5013396;28;20117;-70
2021/08/16 08:17:34;;;;;;;16.67;4.70;;;31.60;50.00;;;;;;5013575;28;20045;-71
2021/08/16 08:20:01;;;;;;;10.77;4.57;;;31.70;50.50;;;;;;4995777;28;20038;-71
2021/08/16 08:22:26;;;;;;;9.55;4.32;;;31.80;50.90;;;;;;5013507;28;20104;-72
2021/08/16 08:24:53;;;;;;;10.73;4.43;;;31.90;49.70;;;;;;5013527;28;20109;-72
2021/08/16 08:27:20;;;;;;;14.98;4.63;;;31.90;50.20;;;;;;5013373;28;20033;-71
2021/08/16 08:29:46;;;;;;;12.18;4.35;;;31.90;50.20;;;;;;5013238;28;20022;-72
2021/08/16 08:32:13;;;;;;;14.15;4.35;;;31.90;49.80;;;;;;5013181;28;20382;-72
2021/08/16 08:34:38;;;;;;;12.88;4.63;;;31.90;50.20;;;;;;5013305;28;20475;-71
2021/08/16 08:37:10;;;;;;;14.82;4.40;;;31.90;49.70;;;;;;5013102;28;20033;-73
2021/08/16 08:39:40;;;;;;;21.23;5.07;;;31.90;49.40;;;;;;5012096;28;20501;-72
2021/08/16 08:42:07;;;;;;;16.27;4.00;;;31.90;49.70;;;;;;4993277;28;20026;-71
2021/08/16 08:44:33;;;;;;;8.70;4.20;;;31.90;49.60;;;;;;4993435;28;20470;-72
2021/08/16 08:46:59;;;;;;;18.30;4.65;;;31.90;49.10;;;;;;5012215;28;20022;-72
2021/08/16 08:49:34;;;;;;;11.50;3.88;;;31.90;48.50;;;;;;5013396;28;20029;-74
2021/08/16 08:52:00;;;;;;;13.50;4.47;;;31.90;47.40;;;;;;5013043;28;20026;-73
2021/08/16 08:54:28;;;;;;;15.82;4.20;;;32.00;49.40;;;;;;5013138;28;20064;-73
2021/08/16 08:56:56;;;;;;;11.50;4.28;;;32.00;48.30;;;;;;5013244;28;20022;-71
2021/08/16 08:59:22;;;;;;;18.90;4.40;;;31.90;48.00;;;;;;5012873;28;20041;-73
2021/08/16 09:01:56;;;;;;;22.40;5.05;;;32.00;48.20;;;;;;5012964;28;20395;-73
2021/08/16 09:04:22;;;;;;;13.75;4.60;;;32.00;48.20;;;;;;5012939;28;20030;-72
2021/08/16 09:06:48;;;;;;;12.65;4.25;;;32.00;47.70;;;;;;5012913;28;20529;-73
2021/08/16 09:09:18;;;;;;;16.15;4.45;;;32.00;47.00;;;;;;4995522;28;20040;-73
2021/08/16 09:11:51;;;;;;;9.27;4.03;;;32.10;46.60;;;;;;5012909;28;20180;-75
2021/08/16 09:14:18;;;;;;;16.60;4.35;;;32.10;47.90;;;;;;5012943;28;20104;-73
2021/08/16 09:16:46;;;;;;;10.35;4.00;;;32.10;47.90;;;;;;5012964;28;20049;-73
2021/08/16 09:19:19;;;;;;;10.82;3.95;;;32.10;47.80;;;;;;5013018;28;20189;-73
2021/08/16 09:22:11;;;;;;;9.40;3.70;;;32.10;45.40;;;;;;5013241;28;20167;-73
2021/08/16 09:24:36;;;;;;;11.55;4.25;;;32.10;46.00;;;;;;5015640;28;20026;-72
2021/08/16 09:27:03;;;;;;;15.82;4.10;;;32.20;47.90;;;;;;4998961;28;20032;-74
2021/08/16 09:29:28;;;;;;;9.05;3.50;;;32.20;48.10;;;;;;5016473;28;20037;-74
2021/08/16 09:32:03;;;;;;;13.13;4.20;;;32.20;47.30;;;;;;5015780;28;20034;-72
2021/08/16 09:34:40;;;;;;;11.32;4.53;;;32.20;48.10;;;;;;4998048;28;20109;-73
2021/08/16 09:37:18;;;;;;;14.98;4.28;;;32.30;45.10;;;;;;5016636;28;20021;-73
2021/08/16 09:39:44;;;;;;;17.17;4.40;;;32.20;47.50;;;;;;5016708;28;20049;-75
2021/08/16 09:42:10;;;;;;;15.23;4.45;;;32.30;48.40;;;;;;5016539;28;20026;-74
2021/08/16 09:44:49;;;;;;;15.93;4.45;;;32.30;48.30;;;;;;5016465;28;20030;-73
2021/08/16 09:47:15;;;;;;;11.98;4.15;;;32.40;46.90;;;;;;5016542;28;20022;-75
2021/08/16 09:49:41;;;;;;;12.75;4.35;;;32.40;48.80;;;;;;5016196;28;20029;-73
2021/08/16 09:52:10;;;;;;;16.35;4.50;;;32.40;48.40;;;;;;5016051;28;20032;-74
2021/08/16 09:54:38;;;;;;;10.80;4.22;;;32.40;48.50;;;;;;5016093;28;20018;-73
2021/08/16 09:57:06;;;;;;;15.13;4.50;;;32.50;46.90;;;;;;5016418;28;20026;-74
2021/08/16 09:59:33;;;;;;;13.55;3.97;;;32.60;49.40;;;;;;5016313;28;20113;-73
2021/08/16 10:01:59;;;;;;;9.60;4.53;;;32.70;48.80;;;;;;5015989;28;20021;-74
2021/08/16 10:04:27;;;;;;;16.98;4.80;;;32.70;48.80;;;;;;5016034;28;20034;-74
2021/08/16 10:06:56;;;;;;;19.90;4.95;;;32.70;49.40;;;;;;5015491;28;20036;-74
2021/08/16 10:09:23;;;;;;;11.65;4.28;;;32.70;49.80;;;;;;5016306;28;20026;-73
2021/08/16 10:11:49;;;;;;;10.55;4.30;;;32.70;49.70;;;;;;4998258;28;20109;-74
2021/08/16 10:14:16;;;;;;;14.18;4.50;;;32.70;49.70;;;;;;5014544;28;20069;-73
2021/08/16 10:16:45;;;;;;;13.35;4.47;;;32.70;49.90;;;;;;5015658;28;20045;-73
2021/08/16 10:19:18;;;;;;;14.20;4.55;;;32.70;49.60;;;;;;5016482;28;20045;-72
2021/08/16 10:21:44;;;;;;;17.17;4.90;;;32.80;49.00;;;;;;5015793;28;20109;-73
2021/08/16 10:24:39;;;;;;;16.63;4.57;;;32.80;49.30;;;;;;5015688;28;20340;-75
2021/08/16 10:27:08;;;;;;;16.15;4.35;;;32.90;49.70;;;;;;4985900;28;20038;-78
2021/08/16 10:29:36;;;;;;;14.85;4.38;;;32.90;49.50;;;;;;5016182;28;20430;-76
2021/08/16 10:32:03;;;;;;;19.65;4.55;;;32.90;49.70;;;;;;4998213;28;20038;-75
2021/08/16 10:34:33;;;;;;;17.52;5.13;;;33.00;49.30;;;;;;5014459;28;20430;-75
2021/08/16 10:37:01;;;;;;;15.68;3.85;;;33.10;50.10;;;;;;5015976;28;20018;-75
2021/08/16 10:39:36;;;;;;;19.17;4.28;;;33.20;50.30;;;;;;5015859;28;20069;-82
2021/08/16 10:42:11;;;;;;;19.50;4.57;;;33.40;50.80;;;;;;4978811;28;20026;-77
2021/08/16 10:44:41;;;;;;;12.73;4.25;;;33.40;50.90;;;;;;4996348;28;20101;-77
2021/08/16 10:47:08;;;;;;;15.13;4.70;;;33.50;51.20;;;;;;4996322;28;20065;-75
2021/08/16 10:49:39;;;;;;;17.58;4.40;;;33.60;50.70;;;;;;4996289;28;20023;-73
2021/08/16 10:52:19;;;;;;;23.17;5.68;;;33.60;50.30;;;;;;4995993;28;20027;-74
2021/08/16 10:54:45;;;;;;;22.88;5.85;;;33.70;50.20;;;;;;4995536;28;20132;-75
2021/08/16 10:57:11;;;;;;;23.45;5.75;;;33.70;48.10;;;;;;4995865;28;20034;-75
2021/08/16 10:59:37;;;;;;;22.83;5.32;;;33.80;47.60;;;;;;4995861;28;20030;-74
2021/08/16 11:02:03;;;;;;;18.88;5.47;;;33.90;46.90;;;;;;4962014;28;20030;-74
2021/08/16 11:04:36;;;;;;;26.23;6.43;;;34.00;46.20;;;;;;4995961;28;20024;-73
2021/08/16 11:07:08;;;;;;;16.40;4.25;;;34.00;45.60;;;;;;4985608;28;20121;-75
2021/08/16 11:09:36;;;;;;;21.83;5.40;;;34.00;47.10;;;;;;5015346;28;20034;-74
2021/08/16 11:12:11;;;;;;;20.73;4.30;;;34.00;47.10;;;;;;5015080;28;20018;-74
2021/08/16 11:14:41;;;;;;;17.17;3.95;;;34.10;46.50;;;;;;5020054;28;20041;-76
2021/08/16 11:17:08;;;;;;;16.08;4.53;;;34.10;46.20;;;;;;5027211;28;20482;-74
2021/08/16 11:19:47;;;;;;;16.55;4.25;;;34.10;45.40;;;;;;5023946;28;20029;-75
2021/08/16 11:22:15;;;;;;;18.48;4.55;;;34.20;44.30;;;;;;5024669;28;20026;-74
2021/08/16 11:24:43;;;;;;;14.85;3.95;;;34.20;43.00;;;;;;5014186;28;20029;-75
2021/08/16 11:27:11;;;;;;;16.73;4.85;;;34.20;43.40;;;;;;5013868;28;20094;-74
2021/08/16 11:29:39;;;;;;;19.08;4.22;;;34.20;43.30;;;;;;5013380;28;20044;-74
2021/08/16 11:32:05;;;;;;;17.48;4.57;;;34.20;42.70;;;;;;5014520;28;20026;-76
2021/08/16 11:34:50;;;;;;;22.20;5.20;;;34.20;42.60;;;;;;5012334;28;20438;-75
2021/08/16 11:37:17;;;;;;;21.17;5.53;;;34.30;42.70;;;;;;5014673;28;20332;-73
2021/08/16 11:39:47;;;;;;;22.63;4.97;;;34.30;41.90;;;;;;5012427;28;20053;-74
2021/08/16 11:42:12;;;;;;;18.10;5.28;;;34.30;41.80;;;;;;5007882;28;20029;-74
2021/08/16 11:44:38;;;;;;;22.10;6.15;;;34.40;41.70;;;;;;5014403;28;20025;-75
2021/08/16 11:47:05;;;;;;;23.80;6.35;;;34.40;41.40;;;;;;5014336;28;20383;-74
2021/08/16 11:49:36;;;;;;;23.42;6.25;;;34.50;41.20;;;;;;5012612;28;20375;-75
2021/08/16 11:52:02;;;;;;;25.27;5.35;;;34.50;41.40;;;;;;5014205;28;20092;-76
2021/08/16 11:54:29;;;;;;;24.23;5.15;;;34.60;41.80;;;;;;5019391;28;20629;-77
2021/08/16 11:57:04;;;;;;;22.13;5.18;;;34.60;41.60;;;;;;5016180;28;20021;-75
2021/08/16 11:59:30;;;;;;;15.90;4.65;;;34.60;42.40;;;;;;5012383;28;20053;-76
2021/08/16 12:01:59;;;;;;;24.05;5.47;;;34.70;41.90;;;;;;5013621;28;20383;-76
2021/08/16 12:04:26;;;;;;;18.55;4.57;;;34.70;41.60;;;;;;5012194;28;20034;-75
2021/08/16 12:06:54;;;;;;;24.30;6.05;;;34.70;41.30;;;;;;5012951;28;20018;-77
2021/08/16 12:09:20;;;;;;;23.45;6.53;;;34.70;41.00;;;;;;5013018;28;20383;-74
2021/08/16 12:11:59;;;;;;;21.40;5.07;;;34.70;41.10;;;;;;5013608;28;20026;-75
2021/08/16 12:14:30;;;;;;;21.35;5.05;;;34.70;40.60;;;;;;5013274;28;20034;-74
2021/08/16 12:16:56;;;;;;;23.58;4.88;;;34.70;41.60;;;;;;4995945;28;20434;-76
2021/08/16 12:19:23;;;;;;;29.08;5.45;;;34.70;41.20;;;;;;4995600;28;20065;-76
2021/08/16 12:22:07;;;;;;;20.08;5.07;;;34.70;40.80;;;;;;5013175;28;20025;-74
2021/08/16 12:24:35;;;;;;;20.52;5.30;;;34.70;41.20;;;;;;5013052;28;20018;-76
2021/08/16 12:27:06;;;;;;;21.67;5.55;;;34.70;41.10;;;;;;4995552;28;20049;-76
2021/08/16 12:29:45;;;;;;;21.38;5.18;;;34.80;41.20;;;;;;5013326;28;20534;-75
2021/08/16 12:32:17;;;;;;;19.17;5.20;;;34.80;41.70;;;;;;5013072;28;20092;-77
2021/08/16 12:34:43;;;;;;;19.77;4.93;;;34.90;41.70;;;;;;4995543;28;20036;-76
2021/08/16 12:37:24;;;;;;;20.08;5.25;;;34.90;41.50;;;;;;5013226;28;20073;-75
2021/08/16 12:39:50;;;;;;;18.98;5.05;;;34.90;41.40;;;;;;5009957;28;20037;-76